Time;durP1;ratioP1;P1;durP2;ratioP2;P2;SDS_P1;SDS_P2;PMS_P1;PMS_P2;Temp;Humidity;BMP_temperature;BMP_pressure;BME280_temperature;BME280_humidity;BME280_pressure;Samples;Min_cycle;Max_cycle;Signal;HPM_P1;HPM_P2
2023/03/31 00:01:40;;;;;;;10.65;3.00;;;;;;;;;;5007545;28;20063;-59
2023/03/31 00:04:08;;;;;;;8.63;2.80;;;;;;;;;;5009250;28;20046;-57
2023/03/31 00:06:37;;;;;;;12.07;3.30;;;;;;;;;;5011428;28;20396;-58
2023/03/31 00:09:04;;;;;;;10.45;3.35;;;;;;;;;;5008918;28;20046;-57
2023/03/31 00:11:31;;;;;;;9.70;3.00;;;;;;;;;;5012308;28;20042;-59
2023/03/31 00:13:57;;;;;;;12.90;3.28;;;;;;;;;;5011679;28;20042;-58
2023/03/31 00:16:23;;;;;;;13.15;3.67;;;;;;;;;;5012796;28;20392;-58
2023/03/31 00:18:50;;;;;;;14.70;3.40;;;;;;;;;;5010318;28;20077;-58
2023/03/31 00:21:28;;;;;;;13.82;3.65;;;;;;;;;;5003617;28;20049;-58
2023/03/31 00:24:00;;;;;;;13.90;3.72;;;;;;;;;;5011857;28;20104;-58
2023/03/31 00:26:28;;;;;;;10.07;3.42;;;;;;;;;;5009576;28;20423;-58
2023/03/31 00:28:54;;;;;;;10.30;3.60;;;;;;;;;;5010896;28;20133;-58
2023/03/31 00:31:21;;;;;;;13.05;3.38;;;;;;;;;;5009855;28;20034;-58
2023/03/31 00:33:48;;;;;;;11.15;3.10;;;;;;;;;;5011711;28;20034;-58
2023/03/31 00:36:26;;;;;;;8.25;3.55;;;;;;;;;;5010122;28;20057;-59
2023/03/31 00:38:55;;;;;;;15.55;3.65;;;;;;;;;;5007715;28;20045;-59
2023/03/31 00:41:21;;;;;;;17.80;3.45;;;;;;;;;;5007365;28;20049;-59
2023/03/31 00:44:28;;;;;;;7.70;3.35;;;;;;;;;;5003381;28;20053;-59
2023/03/31 00:47:00;;;;;;;7.65;3.25;;;;;;;;;;5022077;28;20054;-57
2023/03/31 00:49:39;;;;;;;11.40;3.20;;;;;;;;;;5009648;28;20037;-58
2023/03/31 00:52:18;;;;;;;6.83;3.00;;;;;;;;;;5007302;28;20042;-58
2023/03/31 00:54:47;;;;;;;9.70;3.47;;;;;;;;;;5003287;28;20036;-58
2023/03/31 00:57:14;;;;;;;12.27;3.42;;;;;;;;;;5011548;28;20190;-58
2023/03/31 00:59:50;;;;;;;12.07;3.20;;;;;;;;;;5010162;28;20060;-58
2023/03/31 01:02:19;;;;;;;11.77;3.00;;;;;;;;;;5009932;28;20068;-57
2023/03/31 01:04:49;;;;;;;10.50;3.17;;;;;;;;;;5010913;28;20053;-58
2023/03/31 01:07:25;;;;;;;9.60;3.10;;;;;;;;;;5010583;28;20033;-58
2023/03/31 01:09:55;;;;;;;12.93;3.63;;;;;;;;;;5007898;28;20067;-58
2023/03/31 01:12:22;;;;;;;14.20;3.58;;;;;;;;;;5010520;28;20408;-58
2023/03/31 01:14:50;;;;;;;13.23;3.05;;;;;;;;;;5005958;28;20042;-58
2023/03/31 01:17:20;;;;;;;11.75;3.15;;;;;;;;;;5009771;28;20049;-58
2023/03/31 01:19:51;;;;;;;12.18;3.00;;;;;;;;;;5007936;28;20041;-59
2023/03/31 01:22:44;;;;;;;11.95;3.30;;;;;;;;;;5007343;28;20041;-59
2023/03/31 01:25:29;;;;;;;12.00;3.10;;;;;;;;;;5009422;28;20038;-59
2023/03/31 01:28:13;;;;;;;13.32;3.70;;;;;;;;;;5007308;28;20034;-59
2023/03/31 01:31:28;;;;;;;10.15;3.13;;;;;;;;;;5007273;28;20049;-59
2023/03/31 01:34:39;;;;;;;15.15;3.35;;;;;;;;;;5005809;28;20523;-59
2023/03/31 01:37:15;;;;;;;17.63;3.33;;;;;;;;;;4993066;28;20041;-59
2023/03/31 01:40:06;;;;;;;10.52;3.35;;;;;;;;;;5002628;28;20050;-58
2023/03/31 01:42:36;;;;;;;12.00;2.95;;;;;;;;;;5032965;28;20636;-57
2023/03/31 01:45:25;;;;;;;11.60;3.15;;;;;;;;;;5003403;28;20044;-58
2023/03/31 01:47:57;;;;;;;9.77;3.38;;;;;;;;;;5004861;28;20041;-58
2023/03/31 01:50:34;;;;;;;9.32;3.20;;;;;;;;;;5003687;28;20037;-58
2023/03/31 01:53:00;;;;;;;13.55;3.55;;;;;;;;;;4993140;28;20407;-58
2023/03/31 01:55:41;;;;;;;9.93;3.30;;;;;;;;;;5009976;28;20026;-58
2023/03/31 01:58:17;;;;;;;8.35;3.22;;;;;;;;;;5009974;28;20037;-58
2023/03/31 02:01:05;;;;;;;10.98;3.17;;;;;;;;;;5010168;28;20037;-58
2023/03/31 02:03:42;;;;;;;7.18;3.35;;;;;;;;;;5009239;28;20033;-57
2023/03/31 02:06:13;;;;;;;13.45;3.58;;;;;;;;;;5007611;28;20030;-58
2023/03/31 02:08:44;;;;;;;8.20;3.67;;;;;;;;;;5010025;28;20030;-57
2023/03/31 02:11:11;;;;;;;12.15;4.13;;;;;;;;;;5006948;28;20045;-58
2023/03/31 02:13:40;;;;;;;10.60;4.03;;;;;;;;;;5008276;28;20063;-58
2023/03/31 02:16:11;;;;;;;8.07;3.58;;;;;;;;;;5008972;28;20037;-57
2023/03/31 02:18:40;;;;;;;15.70;4.30;;;;;;;;;;5005508;28;20030;-58
2023/03/31 02:21:10;;;;;;;12.40;4.38;;;;;;;;;;5009734;28;20056;-58
2023/03/31 02:23:37;;;;;;;12.02;4.93;;;;;;;;;;5010033;28;20038;-58
2023/03/31 02:26:08;;;;;;;15.43;4.30;;;;;;;;;;5001241;28;20041;-58
2023/03/31 02:28:35;;;;;;;8.82;4.22;;;;;;;;;;5004027;28;20036;-57
2023/03/31 02:31:19;;;;;;;13.70;4.50;;;;;;;;;;4990065;28;20038;-57
2023/03/31 02:33:46;;;;;;;16.73;4.93;;;;;;;;;;5002666;28;20057;-58
2023/03/31 02:36:12;;;;;;;17.58;5.30;;;;;;;;;;5007170;28;20413;-57
2023/03/31 02:38:44;;;;;;;13.93;4.30;;;;;;;;;;5004063;28;20038;-58
2023/03/31 02:41:11;;;;;;;15.00;5.03;;;;;;;;;;4997937;28;20050;-57
2023/03/31 02:43:37;;;;;;;11.98;5.10;;;;;;;;;;5004583;28;20034;-58
2023/03/31 02:46:03;;;;;;;13.00;5.32;;;;;;;;;;5002681;28;20049;-57
2023/03/31 02:48:36;;;;;;;17.75;5.97;;;;;;;;;;4992154;28;20038;-58
2023/03/31 02:51:24;;;;;;;13.48;5.60;;;;;;;;;;5008736;28;20034;-58
2023/03/31 02:54:09;;;;;;;14.27;4.95;;;;;;;;;;5006645;28;20045;-58
2023/03/31 02:57:24;;;;;;;18.42;5.25;;;;;;;;;;5007702;28;20033;-57
2023/03/31 03:00:13;;;;;;;13.40;5.68;;;;;;;;;;5036021;28;20427;-57
2023/03/31 03:03:01;;;;;;;12.73;5.75;;;;;;;;;;5028933;28;20507;-58
2023/03/31 03:05:44;;;;;;;17.25;6.07;;;;;;;;;;5007027;28;20049;-58
2023/03/31 03:08:54;;;;;;;18.55;6.05;;;;;;;;;;5004056;28;20053;-58
2023/03/31 03:11:50;;;;;;;14.38;5.43;;;;;;;;;;5002211;28;20038;-58
2023/03/31 03:14:38;;;;;;;12.65;6.00;;;;;;;;;;5004122;28;20105;-58
2023/03/31 03:17:12;;;;;;;15.80;6.30;;;;;;;;;;5003122;28;20026;-58
2023/03/31 03:19:41;;;;;;;17.65;6.00;;;;;;;;;;5006975;28;20082;-58
2023/03/31 03:22:08;;;;;;;12.60;6.07;;;;;;;;;;5005007;28;20041;-58
2023/03/31 03:24:34;;;;;;;15.65;7.13;;;;;;;;;;5009037;28;20042;-58
2023/03/31 03:27:00;;;;;;;15.57;6.10;;;;;;;;;;5007413;28;20503;-58
2023/03/31 03:29:26;;;;;;;16.27;6.38;;;;;;;;;;5008097;28;20494;-58
2023/03/31 03:31:53;;;;;;;17.17;6.47;;;;;;;;;;5007742;28;20050;-58
2023/03/31 03:34:19;;;;;;;17.52;6.97;;;;;;;;;;5003115;28;20416;-58
2023/03/31 03:36:46;;;;;;;14.88;6.13;;;;;;;;;;5003055;28;20038;-58
2023/03/31 03:39:12;;;;;;;14.10;6.75;;;;;;;;;;5009637;28;20049;-58
2023/03/31 03:41:38;;;;;;;19.17;6.57;;;;;;;;;;5012431;28;20435;-58
2023/03/31 03:44:05;;;;;;;14.85;6.45;;;;;;;;;;5005692;28;20031;-58
2023/03/31 03:46:31;;;;;;;17.67;7.07;;;;;;;;;;5009289;28;20411;-58
2023/03/31 03:48:57;;;;;;;16.13;7.20;;;;;;;;;;5005972;28;20041;-58
2023/03/31 03:51:23;;;;;;;14.73;7.00;;;;;;;;;;5006965;28;20033;-58
2023/03/31 03:53:49;;;;;;;20.20;8.43;;;;;;;;;;5012490;28;20038;-58
2023/03/31 03:56:15;;;;;;;20.23;7.78;;;;;;;;;;5012539;28;20053;-58
2023/03/31 03:58:41;;;;;;;19.33;8.65;;;;;;;;;;5012070;28;20030;-58
2023/03/31 04:01:07;;;;;;;19.15;7.82;;;;;;;;;;5012122;28;20034;-58
2023/03/31 04:03:33;;;;;;;17.92;7.03;;;;;;;;;;5012764;28;20034;-58
2023/03/31 04:05:59;;;;;;;20.95;7.90;;;;;;;;;;5012084;28;20053;-58
2023/03/31 04:08:26;;;;;;;21.38;7.28;;;;;;;;;;5013162;28;20042;-58
2023/03/31 04:10:52;;;;;;;19.45;7.88;;;;;;;;;;5011665;28;20503;-58
2023/03/31 04:13:19;;;;;;;19.27;7.82;;;;;;;;;;5011830;28;20033;-58
2023/03/31 04:15:45;;;;;;;15.70;7.60;;;;;;;;;;5011696;28;20026;-58
2023/03/31 04:18:21;;;;;;;17.73;7.80;;;;;;;;;;5009301;28;20042;-58
2023/03/31 04:20:53;;;;;;;21.88;7.90;;;;;;;;;;5011020;28;20049;-58
2023/03/31 04:23:22;;;;;;;22.42;7.97;;;;;;;;;;5011346;28;20042;-58
2023/03/31 04:25:50;;;;;;;17.87;8.20;;;;;;;;;;5011322;28;20053;-58
2023/03/31 04:28:16;;;;;;;19.05;8.60;;;;;;;;;;5011716;28;20034;-58
2023/03/31 04:30:42;;;;;;;24.98;7.75;;;;;;;;;;5009275;28;20045;-58
2023/03/31 04:33:08;;;;;;;17.98;7.65;;;;;;;;;;5004693;28;20396;-58
2023/03/31 04:35:52;;;;;;;19.38;7.75;;;;;;;;;;5002645;28;20030;-58
2023/03/31 04:38:23;;;;;;;23.20;8.68;;;;;;;;;;5008785;28;20029;-58
2023/03/31 04:40:51;;;;;;;17.27;6.68;;;;;;;;;;5006250;28;20044;-58
2023/03/31 04:43:19;;;;;;;23.08;7.68;;;;;;;;;;5006957;28;20037;-58
2023/03/31 04:45:45;;;;;;;20.05;8.10;;;;;;;;;;5003663;28;20042;-58
2023/03/31 04:48:11;;;;;;;21.77;8.57;;;;;;;;;;5003830;28;20053;-58
2023/03/31 04:50:38;;;;;;;19.48;7.20;;;;;;;;;;5002763;28;20033;-58
2023/03/31 04:53:04;;;;;;;21.75;8.15;;;;;;;;;;5011784;28;20053;-58
2023/03/31 04:55:31;;;;;;;19.80;7.38;;;;;;;;;;5011501;28;20026;-58
2023/03/31 04:57:57;;;;;;;19.70;8.52;;;;;;;;;;5012140;28;20056;-58
2023/03/31 05:00:23;;;;;;;17.70;7.93;;;;;;;;;;5009577;28;20041;-58
2023/03/31 05:02:50;;;;;;;18.25;8.00;;;;;;;;;;5011048;28;20424;-58
2023/03/31 05:05:16;;;;;;;21.38;8.07;;;;;;;;;;5010917;28;20408;-58
2023/03/31 05:07:42;;;;;;;27.15;8.68;;;;;;;;;;5007218;28;20041;-56
2023/03/31 05:10:09;;;;;;;15.60;7.65;;;;;;;;;;5009957;28;20041;-56
2023/03/31 05:12:36;;;;;;;20.17;9.25;;;;;;;;;;5010455;28;20411;-56
2023/03/31 05:15:04;;;;;;;19.63;6.90;;;;;;;;;;5009091;28;20049;-56
2023/03/31 05:17:32;;;;;;;29.35;8.95;;;;;;;;;;5010361;28;20048;-55
2023/03/31 05:19:58;;;;;;;33.15;9.95;;;;;;;;;;5006876;28;20053;-56
2023/03/31 05:22:25;;;;;;;22.35;8.90;;;;;;;;;;5008216;28;20038;-56
2023/03/31 05:24:51;;;;;;;28.85;9.40;;;;;;;;;;5004781;28;20050;-56
2023/03/31 05:27:20;;;;;;;24.52;9.35;;;;;;;;;;5010434;28;20037;-57
2023/03/31 05:29:47;;;;;;;26.30;10.18;;;;;;;;;;5006887;28;20045;-56
2023/03/31 05:32:14;;;;;;;24.30;9.85;;;;;;;;;;5005593;28;20031;-56
2023/03/31 05:34:42;;;;;;;28.98;10.63;;;;;;;;;;5009005;28;20411;-56
2023/03/31 05:37:08;;;;;;;27.33;10.05;;;;;;;;;;5007743;28;20503;-56
2023/03/31 05:39:34;;;;;;;28.45;10.85;;;;;;;;;;5008104;28;20038;-56
2023/03/31 05:42:02;;;;;;;34.47;10.55;;;;;;;;;;5008901;28;20061;-56
2023/03/31 05:44:28;;;;;;;22.58;10.35;;;;;;;;;;5006273;28;20041;-56
2023/03/31 05:46:55;;;;;;;23.90;9.68;;;;;;;;;;5003125;28;20041;-56
2023/03/31 05:49:21;;;;;;;24.50;10.18;;;;;;;;;;5008935;28;20033;-57
2023/03/31 05:51:47;;;;;;;27.80;10.65;;;;;;;;;;5007819;28;20046;-56
2023/03/31 05:54:13;;;;;;;19.00;9.40;;;;;;;;;;4991704;28;20077;-57
2023/03/31 05:56:40;;;;;;;22.88;9.93;;;;;;;;;;5009498;28;20502;-56
2023/03/31 05:59:06;;;;;;;20.13;9.27;;;;;;;;;;5006245;28;20054;-57
2023/03/31 06:01:32;;;;;;;18.95;8.68;;;;;;;;;;5002872;28;20093;-57
2023/03/31 06:03:58;;;;;;;20.92;8.57;;;;;;;;;;5008099;28;20037;-57
2023/03/31 06:06:25;;;;;;;22.73;8.68;;;;;;;;;;5007526;28;20069;-57
2023/03/31 06:08:51;;;;;;;20.73;8.43;;;;;;;;;;5007456;28;20068;-56
2023/03/31 06:11:19;;;;;;;16.20;7.28;;;;;;;;;;5006510;28;20046;-56
2023/03/31 06:13:46;;;;;;;13.98;7.45;;;;;;;;;;5008120;28;20061;-56
2023/03/31 06:16:14;;;;;;;17.80;8.68;;;;;;;;;;5008602;28;20038;-56
2023/03/31 06:18:40;;;;;;;16.10;7.15;;;;;;;;;;5008839;28;20042;-56
2023/03/31 06:21:09;;;;;;;13.88;6.72;;;;;;;;;;5008156;28;20392;-53
2023/03/31 06:23:35;;;;;;;12.77;6.75;;;;;;;;;;5004176;28;20105;-56
2023/03/31 06:26:05;;;;;;;12.35;7.47;;;;;;;;;;5009335;28;20037;-56
2023/03/31 06:28:31;;;;;;;11.85;6.60;;;;;;;;;;5004094;28;20064;-57
2023/03/31 06:31:07;;;;;;;12.27;6.75;;;;;;;;;;5006323;28;20033;-56
2023/03/31 06:33:34;;;;;;;12.77;6.60;;;;;;;;;;4999455;28;20135;-57
2023/03/31 06:36:02;;;;;;;15.77;6.45;;;;;;;;;;4999623;28;20049;-56
2023/03/31 06:38:29;;;;;;;11.00;6.37;;;;;;;;;;5008678;28;20056;-56
2023/03/31 06:40:55;;;;;;;14.75;6.47;;;;;;;;;;5006260;28;20046;-56
2023/03/31 06:43:21;;;;;;;13.02;6.03;;;;;;;;;;5001571;28;20468;-56
2023/03/31 06:45:47;;;;;;;8.98;5.57;;;;;;;;;;5002654;28;20495;-56
2023/03/31 06:48:14;;;;;;;14.75;6.00;;;;;;;;;;5009619;28;20041;-56
2023/03/31 06:50:41;;;;;;;9.60;6.85;;;;;;;;;;5007909;28;20025;-57
2023/03/31 06:53:10;;;;;;;12.10;5.82;;;;;;;;;;5009549;28;20415;-56
2023/03/31 06:55:36;;;;;;;10.82;5.85;;;;;;;;;;5009063;28;20026;-56
2023/03/31 06:58:04;;;;;;;12.98;6.38;;;;;;;;;;5008961;28;20038;-56
2023/03/31 07:00:31;;;;;;;11.82;6.15;;;;;;;;;;5004774;28;20038;-56
2023/03/31 07:02:58;;;;;;;12.65;6.60;;;;;;;;;;5006537;28;20403;-56
2023/03/31 07:05:27;;;;;;;16.83;8.20;;;;;;;;;;5007773;28;20046;-58
2023/03/31 07:07:55;;;;;;;13.05;7.10;;;;;;;;;;5006870;28;20037;-57
2023/03/31 07:10:23;;;;;;;16.88;7.88;;;;;;;;;;5006515;28;20403;-57
2023/03/31 07:12:50;;;;;;;11.95;5.60;;;;;;;;;;5008912;28;20029;-57
2023/03/31 07:15:16;;;;;;;10.73;5.38;;;;;;;;;;5008677;28;20447;-57
2023/03/31 07:17:43;;;;;;;6.88;4.55;;;;;;;;;;5009806;28;20084;-56
2023/03/31 07:20:11;;;;;;;7.32;4.72;;;;;;;;;;5007694;28;20046;-57
2023/03/31 07:22:41;;;;;;;8.27;5.07;;;;;;;;;;5005109;28;20041;-57
2023/03/31 07:25:09;;;;;;;6.68;4.18;;;;;;;;;;5007536;28;20030;-56
2023/03/31 07:27:37;;;;;;;6.47;4.43;;;;;;;;;;5007081;28;20037;-55
2023/03/31 07:30:06;;;;;;;9.07;3.92;;;;;;;;;;5005301;28;20033;-56
2023/03/31 07:32:38;;;;;;;8.52;4.18;;;;;;;;;;5007454;28;20029;-56
2023/03/31 07:35:07;;;;;;;5.65;4.47;;;;;;;;;;5005849;28;20029;-55
2023/03/31 07:37:40;;;;;;;6.32;4.13;;;;;;;;;;5006756;28;20042;-55
2023/03/31 07:40:08;;;;;;;6.00;3.67;;;;;;;;;;5002001;28;20042;-56
2023/03/31 07:42:34;;;;;;;6.25;3.60;;;;;;;;;;5004376;28;20054;-55
2023/03/31 07:45:02;;;;;;;7.03;3.60;;;;;;;;;;5005765;28;20443;-55
2023/03/31 07:47:28;;;;;;;4.53;3.40;;;;;;;;;;5006209;28;20026;-55
2023/03/31 07:49:54;;;;;;;5.40;3.30;;;;;;;;;;5006477;28;20050;-56
2023/03/31 07:52:20;;;;;;;4.63;3.03;;;;;;;;;;5007751;28;20515;-55
2023/03/31 07:54:46;;;;;;;4.63;2.58;;;;;;;;;;5007114;28;20037;-56
2023/03/31 07:57:12;;;;;;;4.05;2.60;;;;;;;;;;5007046;28;20050;-56
2023/03/31 07:59:39;;;;;;;2.60;2.40;;;;;;;;;;5006757;28;20025;-55
2023/03/31 08:02:05;;;;;;;5.57;2.40;;;;;;;;;;5007469;28;20052;-56
2023/03/31 08:04:32;;;;;;;6.40;3.38;;;;;;;;;;5005767;28;20070;-56
2023/03/31 08:06:58;;;;;;;5.10;2.88;;;;;;;;;;5006602;28;20053;-55
2023/03/31 08:09:25;;;;;;;3.83;2.30;;;;;;;;;;5003639;28;20397;-54
2023/03/31 08:11:51;;;;;;;2.95;2.10;;;;;;;;;;5006011;28;20072;-55
2023/03/31 08:14:17;;;;;;;2.78;1.65;;;;;;;;;;5005196;28;20034;-54
2023/03/31 08:16:43;;;;;;;2.65;2.10;;;;;;;;;;5007653;28;20049;-55
2023/03/31 08:19:09;;;;;;;3.63;1.83;;;;;;;;;;5006217;28;20771;-56
2023/03/31 08:21:36;;;;;;;4.55;2.08;;;;;;;;;;5007831;28;20041;-56
2023/03/31 08:24:02;;;;;;;2.63;1.75;;;;;;;;;;5006819;28;20030;-56
2023/03/31 08:26:29;;;;;;;1.30;1.20;;;;;;;;;;5009620;28;20057;-56
2023/03/31 08:28:57;;;;;;;2.35;1.35;;;;;;;;;;5008726;28;20173;-55
2023/03/31 08:31:24;;;;;;;3.75;1.60;;;;;;;;;;5007475;28;20038;-55
2023/03/31 08:33:50;;;;;;;3.08;1.45;;;;;;;;;;5010334;28;20041;-55
2023/03/31 08:36:17;;;;;;;2.10;1.42;;;;;;;;;;5010509;28;20038;-55
2023/03/31 08:38:48;;;;;;;1.27;1.15;;;;;;;;;;5009773;28;20033;-54
2023/03/31 08:41:36;;;;;;;2.78;1.80;;;;;;;;;;5008822;28;20054;-57
2023/03/31 08:44:16;;;;;;;1.73;1.45;;;;;;;;;;5006667;28;20114;-55
2023/03/31 08:46:42;;;;;;;5.22;1.40;;;;;;;;;;5009419;28;20404;-56
2023/03/31 08:49:15;;;;;;;1.40;1.30;;;;;;;;;;5010238;28;20042;-56
2023/03/31 08:51:49;;;;;;;2.63;1.48;;;;;;;;;;5010373;28;20042;-58
2023/03/31 08:54:22;;;;;;;2.63;1.38;;;;;;;;;;5008313;28;20510;-56
2023/03/31 08:56:50;;;;;;;1.35;1.25;;;;;;;;;;5010200;28;20026;-55
2023/03/31 08:59:19;;;;;;;2.00;1.20;;;;;;;;;;5009649;28;20116;-55
2023/03/31 09:01:49;;;;;;;1.23;1.10;;;;;;;;;;5009350;28;20044;-57
2023/03/31 09:04:31;;;;;;;3.10;1.27;;;;;;;;;;5006977;28;20045;-55
2023/03/31 09:07:16;;;;;;;4.50;1.40;;;;;;;;;;5009300;28;20053;-56
2023/03/31 09:10:20;;;;;;;2.00;0.90;;;;;;;;;;5007178;28;20053;-57
2023/03/31 09:13:05;;;;;;;1.55;1.10;;;;;;;;;;5006235;28;20479;-55
2023/03/31 09:16:01;;;;;;;1.40;1.10;;;;;;;;;;5007188;28;20395;-57
2023/03/31 09:18:34;;;;;;;5.53;1.70;;;;;;;;;;5003342;28;20049;-57
2023/03/31 09:21:03;;;;;;;2.55;1.20;;;;;;;;;;5010089;28;20037;-56
2023/03/31 09:23:40;;;;;;;4.65;1.50;;;;;;;;;;5006078;28;20391;-57
2023/03/31 09:26:20;;;;;;;2.60;1.25;;;;;;;;;;5007996;28;20030;-55
2023/03/31 09:28:46;;;;;;;3.00;1.50;;;;;;;;;;5008724;28;20029;-56
2023/03/31 09:31:16;;;;;;;3.28;1.77;;;;;;;;;;5005163;28;20042;-58
2023/03/31 09:33:46;;;;;;;3.33;1.20;;;;;;;;;;5010456;28;20033;-58
2023/03/31 09:36:16;;;;;;;2.55;1.10;;;;;;;;;;5002131;28;20051;-57
2023/03/31 09:38:43;;;;;;;3.67;1.30;;;;;;;;;;5009162;28;20502;-57
2023/03/31 09:41:12;;;;;;;2.55;1.70;;;;;;;;;;5006756;28;20045;-56
2023/03/31 09:43:40;;;;;;;2.63;1.60;;;;;;;;;;5006819;28;20079;-58
2023/03/31 09:46:23;;;;;;;2.55;1.30;;;;;;;;;;5008762;28;20034;-59
2023/03/31 09:48:55;;;;;;;5.93;1.52;;;;;;;;;;5010469;28;20049;-57
2023/03/31 09:51:28;;;;;;;3.22;1.27;;;;;;;;;;5005606;28;20411;-59
2023/03/31 09:54:08;;;;;;;4.15;1.50;;;;;;;;;;5009852;28;20522;-59
2023/03/31 09:56:54;;;;;;;6.22;1.50;;;;;;;;;;5010504;28;20045;-58
2023/03/31 09:59:34;;;;;;;1.90;1.27;;;;;;;;;;5008746;28;20157;-57
2023/03/31 10:02:22;;;;;;;3.70;1.50;;;;;;;;;;5010576;28;20397;-57
2023/03/31 10:04:49;;;;;;;5.63;1.70;;;;;;;;;;5005782;28;20052;-58
2023/03/31 10:07:21;;;;;;;3.65;1.67;;;;;;;;;;5007520;28;20050;-59
2023/03/31 10:09:48;;;;;;;3.08;1.60;;;;;;;;;;5008953;28;20044;-57
2023/03/31 10:12:23;;;;;;;5.22;1.63;;;;;;;;;;5009194;28;20412;-57
2023/03/31 10:14:51;;;;;;;6.40;1.55;;;;;;;;;;5009133;28;20052;-57
2023/03/31 10:17:20;;;;;;;6.43;1.40;;;;;;;;;;5010154;28;20054;-57
2023/03/31 10:19:50;;;;;;;7.40;1.58;;;;;;;;;;5009084;28;20033;-57
2023/03/31 10:22:20;;;;;;;4.32;1.30;;;;;;;;;;5010242;28;20037;-57
2023/03/31 10:24:47;;;;;;;;;;;;;;;;;;5007755;28;20033;-57
2023/03/31 10:27:26;;;;;;;3.78;1.30;;;;;;;;;;5000381;28;20434;-58
2023/03/31 10:29:57;;;;;;;3.63;1.38;;;;;;;;;;5001343;28;20054;-57
2023/03/31 10:32:27;;;;;;;6.57;1.45;;;;;;;;;;5005557;28;20029;-57
2023/03/31 10:34:56;;;;;;;5.45;2.28;;;;;;;;;;5005616;28;20049;-58
2023/03/31 10:37:25;;;;;;;6.90;1.65;;;;;;;;;;5007598;28;20034;-56
2023/03/31 10:40:20;;;;;;;5.97;1.42;;;;;;;;;;5007979;28;20609;-56
2023/03/31 10:42:57;;;;;;;7.32;1.95;;;;;;;;;;5005737;28;20049;-56
2023/03/31 10:45:26;;;;;;;6.57;2.08;;;;;;;;;;5008669;28;20038;-57
2023/03/31 10:47:56;;;;;;;6.25;1.70;;;;;;;;;;5008691;28;20030;-57
2023/03/31 10:50:31;;;;;;;5.15;1.65;;;;;;;;;;5008567;28;20030;-56
2023/03/31 10:53:02;;;;;;;6.53;1.50;;;;;;;;;;5008430;28;20056;-57
2023/03/31 10:55:52;;;;;;;3.50;1.38;;;;;;;;;;5008842;28;20444;-56
2023/03/31 10:59:04;;;;;;;5.80;1.95;;;;;;;;;;5007440;28;20054;-56
2023/03/31 11:01:49;;;;;;;6.80;1.55;;;;;;;;;;5002692;28;20419;-57
2023/03/31 11:04:50;;;;;;;4.20;1.38;;;;;;;;;;5005014;28;20034;-55
2023/03/31 11:07:28;;;;;;;5.03;1.20;;;;;;;;;;5007036;28;20045;-57
2023/03/31 11:10:22;;;;;;;5.35;1.92;;;;;;;;;;5006344;28;20084;-57
2023/03/31 11:13:14;;;;;;;4.88;1.10;;;;;;;;;;5005277;28;20037;-58
2023/03/31 11:15:50;;;;;;;4.68;1.50;;;;;;;;;;5008257;28;20431;-57
2023/03/31 11:18:35;;;;;;;6.80;1.33;;;;;;;;;;5001569;28;20044;-56
2023/03/31 11:21:16;;;;;;;2.85;1.08;;;;;;;;;;5006095;28;20052;-57
2023/03/31 11:23:48;;;;;;;6.43;1.30;;;;;;;;;;5005761;28;20546;-56
2023/03/31 11:26:37;;;;;;;4.40;1.10;;;;;;;;;;5005976;28;20026;-57
2023/03/31 11:29:11;;;;;;;6.20;1.20;;;;;;;;;;5006952;28;20049;-58
2023/03/31 11:31:41;;;;;;;6.55;1.98;;;;;;;;;;5007870;28;20403;-56
2023/03/31 11:34:25;;;;;;;3.72;1.70;;;;;;;;;;5007511;28;20038;-58
2023/03/31 11:37:20;;;;;;;4.38;1.23;;;;;;;;;;5008089;28;20393;-57
2023/03/31 11:40:13;;;;;;;5.65;2.75;;;;;;;;;;4987660;28;20054;-57
2023/03/31 11:43:03;;;;;;;2.97;1.30;;;;;;;;;;5005749;28;20038;-57
2023/03/31 11:45:37;;;;;;;;;;;;;;;;;;5004743;28;20093;-59
2023/03/31 11:48:12;;;;;;;5.20;1.20;;;;;;;;;;5006248;28;19920;-57
2023/03/31 11:50:42;;;;;;;2.85;1.10;;;;;;;;;;5003450;28;20487;-58
2023/03/31 11:53:19;;;;;;;2.53;1.00;;;;;;;;;;5008822;28;20037;-57
2023/03/31 11:55:50;;;;;;;5.65;0.82;;;;;;;;;;5007154;28;20676;-57
2023/03/31 11:58:27;;;;;;;2.67;0.95;;;;;;;;;;5008358;28;20038;-57
2023/03/31 12:01:04;;;;;;;5.28;0.90;;;;;;;;;;5010272;28;20040;-56
2023/03/31 12:03:42;;;;;;;2.58;1.52;;;;;;;;;;5006072;28;20034;-58
2023/03/31 12:06:20;;;;;;;2.33;1.33;;;;;;;;;;5010914;28;20041;-57
2023/03/31 12:08:51;;;;;;;5.72;2.20;;;;;;;;;;5008724;28;20049;-56
2023/03/31 12:11:30;;;;;;;2.22;1.10;;;;;;;;;;5010761;28;20048;-57
2023/03/31 12:14:12;;;;;;;5.18;1.45;;;;;;;;;;5011482;28;20044;-57
2023/03/31 12:16:44;;;;;;;1.13;0.70;;;;;;;;;;5012393;28;20041;-58
2023/03/31 12:19:33;;;;;;;1.88;1.20;;;;;;;;;;5005310;28;20030;-56
2023/03/31 12:22:10;;;;;;;2.15;0.90;;;;;;;;;;5012576;28;20053;-58
2023/03/31 12:24:37;;;;;;;3.25;1.00;;;;;;;;;;5008698;28;20629;-56
2023/03/31 12:27:20;;;;;;;1.17;0.93;;;;;;;;;;5006093;28;20522;-57
2023/03/31 12:30:00;;;;;;;1.38;0.85;;;;;;;;;;5010893;28;20050;-58
2023/03/31 12:32:38;;;;;;;1.13;0.70;;;;;;;;;;5007964;28;20090;-57
2023/03/31 12:35:20;;;;;;;1.98;0.95;;;;;;;;;;5005755;28;20281;-58
2023/03/31 12:37:52;;;;;;;1.33;0.80;;;;;;;;;;5006113;28;20054;-57
2023/03/31 12:40:21;;;;;;;1.45;0.80;;;;;;;;;;5005888;28;20041;-57
2023/03/31 12:43:08;;;;;;;1.80;0.90;;;;;;;;;;5010283;28;20041;-57
2023/03/31 12:45:42;;;;;;;3.33;0.98;;;;;;;;;;5010405;28;20042;-58
2023/03/31 12:48:26;;;;;;;1.00;0.82;;;;;;;;;;5011373;28;20046;-56
2023/03/31 12:51:11;;;;;;;1.13;0.80;;;;;;;;;;5035697;28;20030;-57
2023/03/31 12:53:45;;;;;;;3.03;0.93;;;;;;;;;;5008110;28;20060;-58
2023/03/31 12:56:12;;;;;;;1.13;0.80;;;;;;;;;;5011624;28;20030;-56
2023/03/31 12:58:41;;;;;;;2.17;0.90;;;;;;;;;;5009515;28;20422;-58
2023/03/31 13:01:16;;;;;;;4.05;0.90;;;;;;;;;;5008887;28;20404;-57
2023/03/31 13:04:16;;;;;;;2.25;1.23;;;;;;;;;;5011466;28;20040;-58
2023/03/31 13:06:49;;;;;;;5.30;1.17;;;;;;;;;;5006532;28;20061;-57
2023/03/31 13:09:15;;;;;;;5.30;1.30;;;;;;;;;;5010097;28;20030;-57
2023/03/31 13:11:47;;;;;;;4.82;1.10;;;;;;;;;;5008047;28;20049;-58
2023/03/31 13:14:22;;;;;;;5.85;1.52;;;;;;;;;;5009268;28;20029;-58
2023/03/31 13:16:50;;;;;;;7.28;1.20;;;;;;;;;;5011326;28;20033;-58
2023/03/31 13:19:35;;;;;;;4.80;1.23;;;;;;;;;;5008615;28;20057;-58
2023/03/31 13:22:04;;;;;;;3.55;0.88;;;;;;;;;;5009231;28;20030;-57
2023/03/31 13:24:31;;;;;;;3.60;1.10;;;;;;;;;;5004395;28;20034;-57
2023/03/31 13:27:43;;;;;;;5.80;1.50;;;;;;;;;;5009489;28;20037;-57
2023/03/31 13:30:35;;;;;;;18.50;1.88;;;;;;;;;;5009012;28;20045;-58
2023/03/31 13:33:20;;;;;;;7.20;1.83;;;;;;;;;;5008781;28;20049;-58
2023/03/31 13:35:52;;;;;;;7.20;1.40;;;;;;;;;;5008242;28;20522;-57
2023/03/31 13:38:43;;;;;;;3.10;1.27;;;;;;;;;;5004573;28;20035;-56
2023/03/31 13:41:22;;;;;;;14.60;5.72;;;;;;;;;;5006505;28;20064;-58
2023/03/31 13:44:09;;;;;;;11.27;3.53;;;;;;;;;;5009103;28;20033;-58
2023/03/31 13:47:13;;;;;;;6.68;2.45;;;;;;;;;;5010595;28;20030;-58
2023/03/31 13:49:42;;;;;;;3.42;0.95;;;;;;;;;;5009469;28;20482;-57
2023/03/31 13:52:10;;;;;;;11.60;1.90;;;;;;;;;;5008756;28;20034;-58
2023/03/31 13:54:55;;;;;;;7.00;1.83;;;;;;;;;;5010254;28;20365;-57
2023/03/31 13:57:46;;;;;;;9.60;2.35;;;;;;;;;;5008139;28;20417;-58
2023/03/31 14:00:29;;;;;;;7.05;2.00;;;;;;;;;;5009698;28;20037;-58
2023/03/31 14:03:20;;;;;;;5.00;1.52;;;;;;;;;;5009013;28;20053;-57
2023/03/31 14:05:52;;;;;;;11.63;2.67;;;;;;;;;;5008707;28;20048;-58
2023/03/31 14:08:42;;;;;;;2.45;1.40;;;;;;;;;;5006444;28;20518;-58
2023/03/31 14:11:34;;;;;;;3.33;1.60;;;;;;;;;;5000889;28;20054;-58
2023/03/31 14:14:10;;;;;;;6.78;3.08;;;;;;;;;;5009579;28;20060;-56
2023/03/31 14:16:43;;;;;;;2.17;1.38;;;;;;;;;;5006780;28;20030;-57
2023/03/31 14:19:48;;;;;;;1.92;1.20;;;;;;;;;;5007506;28;20037;-58
2023/03/31 14:22:26;;;;;;;5.05;1.70;;;;;;;;;;5009085;28;20400;-56
2023/03/31 14:25:21;;;;;;;2.97;1.52;;;;;;;;;;5003624;28;20046;-57
2023/03/31 14:28:12;;;;;;;4.20;2.40;;;;;;;;;;5009930;28;20054;-56
2023/03/31 14:30:51;;;;;;;3.28;1.20;;;;;;;;;;5032360;28;20042;-57
2023/03/31 14:33:24;;;;;;;4.38;1.20;;;;;;;;;;5002845;28;20038;-56
2023/03/31 14:35:57;;;;;;;4.10;1.50;;;;;;;;;;5002766;28;20036;-58
2023/03/31 14:38:26;;;;;;;4.85;1.67;;;;;;;;;;5003531;28;20042;-56
2023/03/31 14:40:55;;;;;;;6.38;2.38;;;;;;;;;;5000311;28;20080;-57
2023/03/31 14:43:24;;;;;;;4.55;1.73;;;;;;;;;;5009770;28;20499;-58
2023/03/31 14:46:10;;;;;;;3.58;1.52;;;;;;;;;;5007812;28;20041;-56
2023/03/31 14:48:46;;;;;;;9.65;3.92;;;;;;;;;;5007144;28;20045;-57
2023/03/31 14:51:22;;;;;;;8.75;2.83;;;;;;;;;;5007600;28;20048;-58
2023/03/31 14:53:58;;;;;;;4.70;1.67;;;;;;;;;;5007509;28;20082;-57
2023/03/31 14:56:35;;;;;;;25.77;8.40;;;;;;;;;;5009705;28;20033;-58
2023/03/31 14:59:04;;;;;;;2.85;1.08;;;;;;;;;;5008105;28;20050;-58
2023/03/31 15:01:33;;;;;;;5.55;2.15;;;;;;;;;;5009645;28;20046;-58
2023/03/31 15:04:06;;;;;;;2.63;1.42;;;;;;;;;;5004522;28;20425;-58
2023/03/31 15:06:32;;;;;;;3.75;1.30;;;;;;;;;;5009028;28;20071;-59
2023/03/31 15:09:01;;;;;;;5.47;2.33;;;;;;;;;;5008448;28;20041;-57
2023/03/31 15:11:30;;;;;;;4.93;1.25;;;;;;;;;;5008574;28;20400;-58
2023/03/31 15:13:58;;;;;;;5.15;2.50;;;;;;;;;;5008560;28;20041;-58
2023/03/31 15:16:40;;;;;;;4.50;2.10;;;;;;;;;;5005571;28;20026;-58